createdAt,value
2019-02-10T00:00:49.227Z,97570.84
2019-02-10T00:03:17.630Z,97572.98
2019-02-10T00:05:46.017Z,97571.72
2019-02-10T00:08:14.670Z,97565.53
2019-02-10T00:10:43.360Z,97553.08
2019-02-10T00:13:32.782Z,97551.81
2019-02-10T00:16:03.634Z,97557.16
2019-02-10T00:18:32.086Z,97551.81
2019-02-10T00:21:00.481Z,97550.89
2019-02-10T00:23:29.212Z,97550.51
2019-02-10T00:25:57.601Z,97552.65
2019-02-10T00:28:26.006Z,97550.53
2019-02-10T00:30:54.386Z,97539.13
2019-02-10T00:33:23.044Z,97536.23
2019-02-10T00:35:51.723Z,97531.73
2019-02-10T00:38:20.350Z,97515.67
2019-02-10T00:40:49.093Z,97524.08
2019-02-10T00:43:17.503Z,97514.58
2019-02-10T00:45:45.911Z,97503.67
2019-02-10T00:48:14.638Z,97506.77
2019-02-10T00:50:43.088Z,97504.39
2019-02-10T00:53:11.802Z,97514.89
2019-02-10T00:55:40.456Z,97506.30
2019-02-10T00:58:09.200Z,97503.36
2019-02-10T01:00:37.585Z,97491.02
2019-02-10T01:03:05.972Z,97475.70
2019-02-10T01:05:34.447Z,97479.37
2019-02-10T01:08:02.821Z,97468.23
2019-02-10T01:10:31.211Z,97465.12
2019-02-10T01:12:59.590Z,97463.92
2019-02-10T01:17:57.141Z,97475.16
2019-02-10T01:20:25.918Z,97481.19
2019-02-10T01:22:54.374Z,97473.34
2019-02-10T01:25:22.762Z,97469.97
2019-02-10T01:27:51.462Z,97468.86
2019-02-10T01:30:39.505Z,97465.38
2019-02-10T01:33:07.886Z,97456.39
2019-02-10T01:35:36.274Z,97448.86
2019-02-10T01:38:04.721Z,97447.16
2019-02-10T01:40:33.427Z,97441.70
2019-02-10T01:43:01.822Z,97445.42
2019-02-10T01:45:30.501Z,97442.75
2019-02-10T01:47:58.892Z,97427.09
2019-02-10T01:50:27.558Z,97431.06
2019-02-10T01:52:56.246Z,97422.48
2019-02-10T01:55:24.635Z,97414.45
2019-02-10T01:57:53.311Z,97406.97
2019-02-10T02:00:21.856Z,97400.39
2019-02-10T02:02:50.627Z,97400.93
2019-02-10T02:05:19.011Z,97391.25
2019-02-10T02:07:47.408Z,97384.83
2019-02-10T02:10:15.871Z,97375.72
2019-02-10T02:12:44.608Z,97367.40
2019-02-10T02:15:53.140Z,97363.80
2019-02-10T02:18:22.043Z,97357.31
2019-02-10T02:20:50.580Z,97346.09
2019-02-10T02:23:19.035Z,97330.81
2019-02-10T02:25:47.433Z,97328.63
2019-02-10T02:28:16.170Z,97324.14
2019-02-10T02:30:44.939Z,97313.44
2019-02-10T02:33:13.415Z,97317.63
2019-02-10T02:35:41.807Z,97303.31
2019-02-10T02:38:10.199Z,97298.71
2019-02-10T02:40:38.860Z,97285.40
2019-02-10T02:43:07.542Z,97283.94
2019-02-10T02:45:36.162Z,97282.63
2019-02-10T02:48:04.855Z,97273.22
2019-02-10T02:50:33.232Z,97266.61
2019-02-10T02:53:01.880Z,97267.23
2019-02-10T02:55:30.562Z,97268.02
2019-02-10T02:57:59.266Z,97259.67
2019-02-10T03:00:27.939Z,97247.56
2019-02-10T03:02:56.625Z,97239.22
2019-02-10T03:05:25.030Z,97232.75
2019-02-10T03:07:53.401Z,97227.11
2019-02-10T03:10:21.780Z,97222.67
2019-02-10T03:12:50.172Z,97221.80
2019-02-10T03:15:18.824Z,97212.37
2019-02-10T03:17:47.229Z,97206.95
2019-02-10T03:20:34.934Z,97197.94
2019-02-10T03:23:03.628Z,97196.83
2019-02-10T03:25:32.305Z,97181.52
2019-02-10T03:28:00.680Z,97185.86
2019-02-10T03:30:29.379Z,97170.55
2019-02-10T03:32:58.059Z,97165.13
2019-02-10T03:35:26.743Z,97157.72
2019-02-10T03:37:55.431Z,97148.52
2019-02-10T03:40:23.813Z,97141.98
2019-02-10T03:42:52.489Z,97127.25
2019-02-10T03:45:20.865Z,97123.76
2019-02-10T03:47:49.277Z,97120.23
2019-02-10T03:50:17.640Z,97122.16
2019-02-10T03:52:46.019Z,97114.82
2019-02-10T03:55:14.406Z,97113.19
2019-02-10T03:57:42.786Z,97113.05
2019-02-10T04:00:30.588Z,97104.98
2019-02-10T04:02:58.961Z,97098.15
2019-02-10T04:05:27.665Z,97093.31
2019-02-10T04:07:56.352Z,97089.26
2019-02-10T04:10:25.033Z,97091.83
2019-02-10T04:12:53.720Z,97090.20
2019-02-10T04:15:22.104Z,97093.85
2019-02-10T04:17:50.495Z,97079.71
2019-02-10T04:20:19.168Z,97075.11
2019-02-10T04:22:47.784Z,97086.64
2019-02-10T04:25:16.176Z,97081.82
2019-02-10T04:27:44.612Z,97077.05
2019-02-10T04:30:13.292Z,97055.03
2019-02-10T04:32:41.977Z,97035.02
2019-02-10T04:35:10.372Z,97022.63
2019-02-10T04:37:45.501Z,97023.19
2019-02-10T04:40:08.871Z,97029.34
2019-02-10T04:42:37.247Z,97030.30
2019-02-10T04:48:19.594Z,97027.67
2019-02-10T04:50:47.984Z,97033.38
2019-02-10T04:53:16.625Z,97021.19
2019-02-10T04:55:45.013Z,97020.52
2019-02-10T04:58:13.395Z,97018.74
2019-02-10T05:01:01.109Z,97017.45
2019-02-10T05:03:29.498Z,97012.18
2019-02-10T05:05:57.878Z,96995.58
2019-02-10T05:08:26.561Z,97005.52
2019-02-10T05:10:55.243Z,96986.17
2019-02-10T05:13:23.932Z,96987.35
2019-02-10T05:15:52.617Z,96975.94
2019-02-10T05:18:21.316Z,96958.02
2019-02-10T05:20:49.993Z,96951.59
2019-02-10T05:23:18.422Z,96962.31
2019-02-10T05:25:46.782Z,96966.94
2019-02-10T05:28:15.432Z,96961.02
2019-02-10T05:30:43.805Z,96951.31
2019-02-10T05:33:12.183Z,96937.56
2019-02-10T05:35:40.581Z,96916.72
2019-02-10T05:38:08.952Z,96930.17
2019-02-10T05:40:56.989Z,96912.77
2019-02-10T05:43:25.368Z,96901.52
2019-02-10T05:45:53.759Z,96906.08
2019-02-10T05:48:22.141Z,96902.41
2019-02-10T05:50:50.809Z,96908.16
2019-02-10T05:53:19.186Z,96904.45
2019-02-10T05:55:47.561Z,96905.29
2019-02-10T05:58:16.212Z,96905.60
2019-02-10T06:00:44.594Z,96902.38
2019-02-10T06:03:12.978Z,96885.87
2019-02-10T06:05:41.353Z,96889.02
2019-02-10T06:08:13.453Z,96883.67
2019-02-10T06:10:39.905Z,96879.78
2019-02-10T06:13:08.299Z,96874.22
2019-02-10T06:15:36.689Z,96859.02
2019-02-10T06:18:05.082Z,96855.80
2019-02-10T06:20:33.460Z,96849.81
2019-02-10T06:23:02.105Z,96850.51
2019-02-10T06:25:30.481Z,96837.83
2019-02-10T06:27:58.876Z,96833.92
2019-02-10T06:30:27.499Z,96835.70
2019-02-10T06:32:56.127Z,96834.87
2019-02-10T06:35:24.775Z,96844.07
2019-02-10T06:37:53.404Z,96836.72
2019-02-10T06:40:22.100Z,96843.65
2019-02-10T06:42:50.474Z,96841.30
2019-02-10T06:45:19.119Z,96836.59
2019-02-10T06:47:47.746Z,96840.08
2019-02-10T06:50:16.139Z,96846.39
2019-02-10T06:52:44.519Z,96841.59
2019-02-10T06:55:12.965Z,96847.20
2019-02-10T06:57:41.363Z,96840.99
2019-02-10T07:00:49.651Z,96841.66
2019-02-10T07:06:54.004Z,96822.30
2019-02-10T07:12:41.797Z,96807.24
2019-02-10T07:15:50.098Z,96795.02
2019-02-10T07:18:57.071Z,96782.25
2019-02-10T07:22:05.378Z,96788.92
2019-02-10T07:24:54.542Z,96785.03
2019-02-10T07:27:42.513Z,96780.08
2019-02-10T07:30:51.057Z,96773.61
2019-02-10T07:33:59.669Z,96761.39
2019-02-10T07:37:06.880Z,96744.70
2019-02-10T07:40:14.101Z,96730.08
2019-02-10T07:43:22.411Z,96711.17
2019-02-10T07:46:29.384Z,96699.31
2019-02-10T07:49:37.762Z,96695.17
2019-02-10T07:52:44.729Z,96681.81
2019-02-10T07:55:34.167Z,96681.71
2019-02-10T07:58:42.761Z,96679.78
2019-02-10T08:01:49.758Z,96674.89
2019-02-10T08:04:58.099Z,96674.83
2019-02-10T08:08:06.431Z,96671.75
2019-02-10T08:11:13.392Z,96665.91
2019-02-10T08:14:21.940Z,96654.48
2019-02-10T08:17:28.906Z,96632.84
2019-02-10T08:20:35.897Z,96642.21
2019-02-10T08:23:44.429Z,96621.72
2019-02-10T08:26:51.457Z,96620.45
2019-02-10T08:29:59.848Z,96624.89
2019-02-10T08:32:49.297Z,96618.89
2019-02-10T08:35:56.288Z,96609.71
2019-02-10T08:39:04.902Z,96609.25
2019-02-10T08:41:54.311Z,96604.77
2019-02-10T08:45:02.915Z,96596.88
2019-02-10T08:48:11.200Z,96580.64
2019-02-10T08:51:18.453Z,96580.17
2019-02-10T08:53:47.070Z,96588.99
2019-02-10T08:56:15.462Z,96574.30
2019-02-10T08:58:43.842Z,96571.37
2019-02-10T09:01:12.488Z,96572.00
2019-02-10T09:03:40.877Z,96579.11
2019-02-10T09:06:09.279Z,96566.44
2019-02-10T09:08:37.658Z,96544.23
2019-02-10T09:11:06.348Z,96538.25
2019-02-10T09:13:34.741Z,96532.81
2019-02-10T09:16:22.463Z,96519.38
2019-02-10T09:18:51.103Z,96515.52
2019-02-10T09:21:19.484Z,96502.81
2019-02-10T09:23:47.878Z,96491.80
2019-02-10T09:26:16.550Z,96482.27
2019-02-10T09:28:45.245Z,96476.41
2019-02-10T09:31:13.636Z,96481.83
2019-02-10T09:33:42.300Z,96478.52
2019-02-10T09:36:10.686Z,96472.61
2019-02-10T09:38:39.059Z,96467.02
2019-02-10T09:41:07.745Z,96450.73
2019-02-10T09:43:36.427Z,96461.88
2019-02-10T09:46:04.949Z,96454.89
2019-02-10T09:48:33.562Z,96450.27
2019-02-10T09:51:02.208Z,96440.48
2019-02-10T09:53:30.594Z,96435.73
2019-02-10T09:55:59.232Z,96432.00
2019-02-10T09:58:27.930Z,96422.38
2019-02-10T10:00:56.399Z,96410.98
2019-02-10T10:03:24.775Z,96412.63
2019-02-10T10:05:53.183Z,96394.45
2019-02-10T10:08:21.563Z,96389.38
2019-02-10T10:10:49.958Z,96392.80
2019-02-10T10:13:18.501Z,96397.46
2019-02-10T10:15:46.947Z,96394.77
2019-02-10T10:18:15.420Z,96388.20
2019-02-10T10:20:44.169Z,96376.92
2019-02-10T10:23:12.610Z,96355.04
2019-02-10T10:25:40.990Z,96339.20
2019-02-10T10:28:09.830Z,96339.20
2019-02-10T10:30:38.220Z,96363.84
2019-02-10T10:33:06.858Z,96340.05
2019-02-10T10:35:35.271Z,96340.05
2019-02-10T10:38:03.712Z,96337.56
2019-02-10T10:40:32.153Z,96337.56
2019-02-10T10:43:00.894Z,96323.05
2019-02-10T10:45:29.291Z,96338.39
2019-02-10T10:47:57.962Z,96326.42
2019-02-10T10:50:26.361Z,96326.42
2019-02-10T10:52:54.815Z,96311.98
2019-02-10T10:55:23.507Z,96311.98
2019-02-10T10:57:52.029Z,96286.25
2019-02-10T11:00:20.410Z,96264.32
2019-02-10T11:02:48.808Z,96271.36
2019-02-10T11:05:17.207Z,96272.82
2019-02-10T11:07:45.597Z,96269.64
2019-02-10T11:10:14.321Z,96263.53
2019-02-10T11:12:42.757Z,96263.53
2019-02-10T11:15:13.024Z,96237.34
2019-02-10T11:17:41.677Z,96232.23
2019-02-10T11:20:13.554Z,96232.23
2019-02-10T11:22:41.934Z,96230.97
2019-02-10T11:25:11.666Z,96230.97
2019-02-10T11:27:40.046Z,96204.94
2019-02-10T11:30:13.545Z,96204.94
2019-02-10T11:32:41.923Z,96200.98
2019-02-10T11:35:10.647Z,96189.16
2019-02-10T11:37:39.045Z,96177.36
2019-02-10T11:40:12.214Z,96177.36
2019-02-10T11:42:40.675Z,96180.01
2019-02-10T11:45:14.117Z,96184.57
2019-02-10T11:47:42.511Z,96177.44
2019-02-10T11:50:12.873Z,96168.73
2019-02-10T11:52:41.724Z,96168.73
2019-02-10T11:55:11.324Z,96179.84
2019-02-10T11:57:40.011Z,96160.39
2019-02-10T12:00:15.043Z,96158.41
2019-02-10T12:02:43.515Z,96158.41
2019-02-10T12:05:12.039Z,96134.98
2019-02-10T12:07:40.692Z,96142.34
2019-02-10T12:10:10.809Z,96134.20
2019-02-10T12:12:39.221Z,96129.27
2019-02-10T12:15:15.558Z,96118.13
2019-02-10T12:17:44.238Z,96118.13
2019-02-10T12:20:16.413Z,96090.81
2019-02-10T12:22:49.866Z,96090.81
2019-02-10T12:25:15.209Z,96121.73
2019-02-10T12:27:43.785Z,96121.73
2019-02-10T12:30:16.291Z,96113.20
2019-02-10T12:32:44.731Z,96096.16
2019-02-10T12:35:13.352Z,96094.96
2019-02-10T12:37:41.817Z,96094.96
2019-02-10T12:40:12.143Z,96105.27
2019-02-10T12:42:40.832Z,96105.27
2019-02-10T12:45:13.502Z,96117.55
2019-02-10T12:47:42.357Z,96129.85
2019-02-10T12:50:13.686Z,96128.55
2019-02-10T12:52:42.222Z,96128.55
2019-02-10T12:55:12.333Z,96139.23
2019-02-10T12:57:41.098Z,96153.41
2019-02-10T13:00:17.299Z,96150.65
2019-02-10T13:02:45.767Z,96150.65
2019-02-10T13:05:14.217Z,96168.52
2019-02-10T13:07:42.612Z,96150.23
2019-02-10T13:10:17.475Z,96172.06
2019-02-10T13:12:45.248Z,96172.06
2019-02-10T13:15:15.604Z,96184.08
2019-02-10T13:17:44.254Z,96173.64
2019-02-10T13:20:14.200Z,96181.70
2019-02-10T13:22:42.925Z,96187.47
2019-02-10T13:25:12.775Z,96175.89
2019-02-10T13:27:41.156Z,96161.64
2019-02-10T13:30:19.052Z,96149.30
2019-02-10T13:32:47.731Z,96149.41
2019-02-10T13:35:16.201Z,96137.23
2019-02-10T13:37:45.006Z,96137.12
2019-02-10T13:40:18.595Z,96120.81
2019-02-10T13:42:47.085Z,96115.15
2019-02-10T13:45:15.482Z,96112.63
2019-02-10T13:47:44.137Z,96113.84
2019-02-10T13:50:16.001Z,96108.22
2019-02-10T13:52:44.400Z,96095.95
2019-02-10T13:55:14.416Z,96110.16
2019-02-10T13:57:43.149Z,96099.08
2019-02-10T14:00:24.812Z,96094.69
2019-02-10T14:02:53.459Z,96092.64
2019-02-10T14:05:22.147Z,96090.00
2019-02-10T14:07:51.214Z,96108.83
2019-02-10T14:10:25.437Z,96079.06
2019-02-10T14:12:50.148Z,96089.34
2019-02-10T14:15:20.411Z,96085.14
2019-02-10T14:17:51.717Z,96089.56
2019-02-10T14:20:20.540Z,96084.41
2019-02-10T14:22:49.192Z,96085.52
2019-02-10T14:25:17.885Z,96090.78
2019-02-10T14:27:46.268Z,96087.26
2019-02-10T14:30:20.500Z,96079.95
2019-02-10T14:32:48.878Z,96073.72
2019-02-10T14:35:17.275Z,96075.90
2019-02-10T14:37:45.924Z,96082.20
2019-02-10T14:40:14.701Z,96083.72
2019-02-10T14:42:43.495Z,96084.72
2019-02-10T14:45:16.381Z,96069.46
2019-02-10T14:47:44.806Z,96069.89
2019-02-10T14:50:15.567Z,96066.07
2019-02-10T14:52:44.322Z,96061.64
2019-02-10T14:55:12.718Z,96044.87
2019-02-10T14:57:41.447Z,96043.33
2019-02-10T15:00:15.036Z,96043.93
2019-02-10T15:02:43.784Z,96044.80
2019-02-10T15:05:12.623Z,96030.45
2019-02-10T15:07:41.012Z,96047.31
2019-02-10T15:10:12.443Z,96035.31
2019-02-10T15:12:40.835Z,96035.95
2019-02-10T15:15:10.850Z,96048.55
2019-02-10T15:17:39.247Z,96040.58
2019-02-10T15:20:09.863Z,96038.20
2019-02-10T15:22:38.256Z,96050.36
2019-02-10T15:25:28.089Z,96052.67
2019-02-10T15:27:56.365Z,96047.91
2019-02-10T15:30:24.747Z,96061.29
2019-02-10T15:32:53.478Z,96070.67
2019-02-10T15:35:21.929Z,96083.83
2019-02-10T15:37:50.309Z,96095.09
2019-02-10T15:40:18.735Z,96097.84
2019-02-10T15:42:47.162Z,96076.27
2019-02-10T15:45:15.559Z,96081.74
2019-02-10T15:47:44.249Z,96112.69
2019-02-10T15:50:52.808Z,96120.61
2019-02-10T15:53:21.562Z,96122.78
2019-02-10T15:55:50.246Z,96145.69
2019-02-10T15:58:18.950Z,96144.08
2019-02-10T16:00:47.625Z,96155.52
2019-02-10T16:03:35.386Z,96166.05
2019-02-10T16:06:03.780Z,96170.05
2019-02-10T16:08:32.523Z,96171.79
2019-02-10T16:11:01.222Z,96190.74
2019-02-10T16:13:29.588Z,96205.97
2019-02-10T16:15:58.320Z,96215.02
2019-02-10T16:18:26.958Z,96221.70
2019-02-10T16:20:55.645Z,96235.89
2019-02-10T16:23:24.023Z,96245.66
2019-02-10T16:25:52.433Z,96256.88
2019-02-10T16:28:21.069Z,96257.37
2019-02-10T16:30:49.452Z,96260.56
2019-02-10T16:33:18.263Z,96247.53
2019-02-10T16:35:46.643Z,96240.81
2019-02-10T16:38:15.277Z,96246.62
2019-02-10T16:40:44.006Z,96249.59
2019-02-10T16:43:12.383Z,96255.61
2019-02-10T16:45:40.774Z,96262.15
2019-02-10T16:48:09.167Z,96280.19
2019-02-10T16:50:37.555Z,96283.59
2019-02-10T16:53:05.946Z,96310.91
2019-02-10T16:55:34.587Z,96320.19
2019-02-10T16:58:03.233Z,96315.83
2019-02-10T17:00:31.960Z,96307.72
2019-02-10T17:03:00.638Z,96309.03
2019-02-10T17:05:29.019Z,96319.05
2019-02-10T17:07:57.906Z,96334.24
2019-02-10T17:10:26.443Z,96323.05
2019-02-10T17:12:54.846Z,96330.66
2019-02-10T17:15:23.574Z,96346.34
2019-02-10T17:17:52.046Z,96348.52
2019-02-10T17:20:20.429Z,96345.24
2019-02-10T17:22:48.814Z,96367.38
2019-02-10T17:28:25.398Z,96380.02
2019-02-10T17:30:54.177Z,96379.90
2019-02-10T17:33:22.861Z,96385.02
2019-02-10T17:35:51.266Z,96391.66
2019-02-10T17:38:19.972Z,96430.84
2019-02-10T17:41:28.343Z,96428.66
2019-02-10T17:43:56.721Z,96445.69
2019-02-10T17:46:25.406Z,96437.34
2019-02-10T17:48:54.093Z,96427.30
2019-02-10T17:51:22.550Z,96419.92
2019-02-10T17:53:51.258Z,96420.65
2019-02-10T17:56:19.653Z,96404.00
2019-02-10T17:58:48.094Z,96387.52
2019-02-10T18:01:16.810Z,96383.17
2019-02-10T18:03:45.218Z,96407.74
2019-02-10T18:06:13.860Z,96441.17
2019-02-10T18:08:42.557Z,96464.66
2019-02-10T18:11:11.310Z,96451.73
2019-02-10T18:13:39.735Z,96471.83
2019-02-10T18:16:27.490Z,96478.61
2019-02-10T18:27:19.009Z,96482.23
2019-02-10T18:32:55.688Z,96506.50
2019-02-10T18:41:08.232Z,96543.55
2019-02-10T18:46:31.171Z,96551.78
2019-02-10T18:49:18.684Z,96546.24
2019-02-10T18:54:55.652Z,96561.09
2019-02-10T18:57:43.390Z,96563.37
2019-02-10T19:00:50.245Z,96584.43
2019-02-10T19:06:27.072Z,96622.05
2019-02-10T19:09:14.574Z,96613.59
2019-02-10T19:12:02.327Z,96607.10
2019-02-10T19:14:49.844Z,96613.75
2019-02-10T19:20:47.573Z,96615.13
2019-02-10T19:29:03.761Z,96642.19
2019-02-10T19:31:51.525Z,96651.22
2019-02-10T19:34:39.023Z,96657.57
2019-02-10T19:37:26.776Z,96652.84
2019-02-10T19:40:14.514Z,96651.78
2019-02-10T19:43:02.333Z,96649.63
2019-02-10T19:45:51.854Z,96639.95
2019-02-10T19:51:14.895Z,96645.04
2019-02-10T19:54:02.406Z,96637.17
2019-02-10T19:56:49.966Z,96642.05
2019-02-10T19:59:37.724Z,96635.55
2019-02-10T20:02:25.479Z,96650.00
2019-02-10T20:08:02.072Z,96652.16
2019-02-10T20:13:38.662Z,96656.59
2019-02-10T20:19:15.261Z,96633.68
2019-02-10T20:22:03.006Z,96640.91
2019-02-10T20:24:50.519Z,96639.55
2019-02-10T20:27:38.046Z,96650.78
2019-02-10T20:30:46.412Z,96650.38
2019-02-10T20:33:33.972Z,96649.91
2019-02-10T20:38:57.019Z,96662.87
2019-02-10T20:41:44.531Z,96679.09
2019-02-10T20:44:32.060Z,96689.73
2019-02-10T20:50:08.659Z,96704.99
2019-02-10T20:52:56.399Z,96708.67
2019-02-10T20:55:44.147Z,96714.04
2019-02-10T20:58:31.883Z,96727.98
2019-02-10T21:01:19.414Z,96728.78
2019-02-10T21:04:06.914Z,96737.59
2019-02-10T21:06:54.671Z,96744.08
2019-02-10T21:12:31.509Z,96749.96
2019-02-10T21:21:07.128Z,96782.63
2019-02-10T21:29:10.147Z,96795.06
2019-02-10T21:31:57.649Z,96795.81
2019-02-10T21:34:45.160Z,96795.45
2019-02-10T21:40:41.326Z,96812.41
2019-02-10T21:43:29.067Z,96836.91
2019-02-10T21:46:16.818Z,96853.77
2019-02-10T21:51:34.309Z,96865.36
2019-02-10T21:54:02.691Z,96858.53
2019-02-10T21:56:31.422Z,96858.66
2019-02-10T21:58:59.807Z,96855.42
2019-02-10T22:01:28.439Z,96866.02
2019-02-10T22:04:16.411Z,96850.64
2019-02-10T22:06:45.109Z,96846.42
2019-02-10T22:09:13.793Z,96841.81
2019-02-10T22:11:42.178Z,96843.59
2019-02-10T22:14:10.594Z,96852.85
2019-02-10T22:16:38.979Z,96864.73
2019-02-10T22:19:07.374Z,96863.86
2019-02-10T22:21:35.770Z,96869.00
2019-02-10T22:24:04.481Z,96877.78
2019-02-10T22:26:33.167Z,96874.20
2019-02-10T22:29:01.554Z,96865.62
2019-02-10T22:31:29.957Z,96869.05
2019-02-10T22:33:58.605Z,96874.13
2019-02-10T22:36:27.293Z,96860.73
2019-02-10T22:38:55.682Z,96867.73
2019-02-10T22:41:24.078Z,96860.52
2019-02-10T22:43:52.474Z,96858.18
2019-02-10T22:46:21.114Z,96873.31
2019-02-10T22:48:49.512Z,96869.16
2019-02-10T22:51:18.178Z,96874.13
2019-02-10T22:53:46.865Z,96892.51
2019-02-10T22:56:15.587Z,96893.49
2019-02-10T22:58:44.346Z,96898.64
2019-02-10T23:01:13.126Z,96899.28
2019-02-10T23:03:41.510Z,96912.02
2019-02-10T23:06:10.147Z,96911.13
2019-02-10T23:08:38.878Z,96916.28
2019-02-10T23:11:07.295Z,96926.45
2019-02-10T23:13:35.945Z,96943.95
2019-02-10T23:16:04.422Z,96937.61
2019-02-10T23:18:33.111Z,96956.98
2019-02-10T23:21:01.748Z,96948.93
2019-02-10T23:23:30.138Z,96952.22
2019-02-10T23:25:58.862Z,96963.20
2019-02-10T23:28:27.546Z,96973.09
2019-02-10T23:30:56.235Z,96981.59
2019-02-10T23:33:24.931Z,96974.14
2019-02-10T23:35:53.706Z,96987.00
2019-02-10T23:38:22.341Z,96991.80
2019-02-10T23:40:51.077Z,96984.96
2019-02-10T23:43:19.766Z,96991.25
2019-02-10T23:45:48.169Z,96990.20
2019-02-10T23:48:16.555Z,96997.27
2019-02-10T23:50:45.190Z,96990.81
2019-02-10T23:53:13.577Z,96991.77
2019-02-10T23:55:42.278Z,97003.38
2019-02-10T23:58:10.958Z,96995.78
